sensor_id;sensor_type;location;lat;lon;timestamp;pressure;altitude;pressure_sealevel;temperature;humidity
76762;BME280;65705;51.032;13.790;2023-06-22T00:01:28;100602.00;;;22.75;66.90
76762;BME280;65705;51.032;13.790;2023-06-22T00:03:53;100598.97;;;22.72;66.86
76762;BME280;65705;51.032;13.790;2023-06-22T00:06:19;100605.19;;;22.66;67.07
76762;BME280;65705;51.032;13.790;2023-06-22T00:08:45;100605.28;;;22.59;67.23
76762;BME280;65705;51.032;13.790;2023-06-22T00:11:11;100606.97;;;22.54;67.58
76762;BME280;65705;51.032;13.790;2023-06-22T00:13:37;100610.09;;;22.51;67.67
76762;BME280;65705;51.032;13.790;2023-06-22T00:16:03;100607.06;;;22.47;67.87
76762;BME280;65705;51.032;13.790;2023-06-22T00:18:29;100608.09;;;22.46;67.89
76762;BME280;65705;51.032;13.790;2023-06-22T00:20:57;100615.47;;;22.51;67.67
76762;BME280;65705;51.032;13.790;2023-06-22T00:23:26;100613.44;;;22.46;67.97
76762;BME280;65705;51.032;13.790;2023-06-22T00:25:52;100619.47;;;22.42;68.19
76762;BME280;65705;51.032;13.790;2023-06-22T00:28:18;100625.09;;;22.34;68.61
76762;BME280;65705;51.032;13.790;2023-06-22T00:30:44;100633.13;;;22.34;68.61
76762;BME280;65705;51.032;13.790;2023-06-22T00:33:11;100640.97;;;22.35;68.62
76762;BME280;65705;51.032;13.790;2023-06-22T00:35:36;100637.91;;;22.32;68.69
76762;BME280;65705;51.032;13.790;2023-06-22T00:38:02;100634.63;;;22.30;68.81
76762;BME280;65705;51.032;13.790;2023-06-22T00:40:31;100633.66;;;22.24;68.96
76762;BME280;65705;51.032;13.790;2023-06-22T00:42:57;100630.44;;;22.16;69.24
76762;BME280;65705;51.032;13.790;2023-06-22T00:45:23;100624.06;;;22.17;69.30
76762;BME280;65705;51.032;13.790;2023-06-22T00:47:53;100624.94;;;22.11;69.66
76762;BME280;65705;51.032;13.790;2023-06-22T00:50:21;100625.41;;;22.08;69.81
76762;BME280;65705;51.032;13.790;2023-06-22T00:52:57;100622.94;;;22.06;69.61
76762;BME280;65705;51.032;13.790;2023-06-22T00:55:25;100628.53;;;22.05;69.73
76762;BME280;65705;51.032;13.790;2023-06-22T00:57:52;100631.59;;;22.02;69.80
76762;BME280;65705;51.032;13.790;2023-06-22T01:00:23;100632.06;;;21.98;70.23
76762;BME280;65705;51.032;13.790;2023-06-22T01:02:51;100627.53;;;21.99;70.24
76762;BME280;65705;51.032;13.790;2023-06-22T01:05:18;100626.13;;;21.96;70.35
76762;BME280;65705;51.032;13.790;2023-06-22T01:12:55;100618.31;;;21.95;70.63
76762;BME280;65705;51.032;13.790;2023-06-22T01:15:31;100624.72;;;21.94;70.60
76762;BME280;65705;51.032;13.790;2023-06-22T01:17:59;100630.09;;;21.87;70.63
76762;BME280;65705;51.032;13.790;2023-06-22T01:20:26;100626.59;;;21.87;70.75
76762;BME280;65705;51.032;13.790;2023-06-22T01:23:07;100621.06;;;21.88;70.79
76762;BME280;65705;51.032;13.790;2023-06-22T01:25:47;100629.69;;;21.90;70.92
76762;BME280;65705;51.032;13.790;2023-06-22T01:30:59;100626.44;;;21.82;70.71
76762;BME280;65705;51.032;13.790;2023-06-22T01:33:35;100632.00;;;21.80;70.79
76762;BME280;65705;51.032;13.790;2023-06-22T01:36:03;100636.34;;;21.81;71.06
76762;BME280;65705;51.032;13.790;2023-06-22T01:38:30;100629.50;;;21.85;70.77
76762;BME280;65705;51.032;13.790;2023-06-22T01:40:57;100623.94;;;21.87;70.64
76762;BME280;65705;51.032;13.790;2023-06-22T01:43:26;100630.69;;;21.89;70.43
76762;BME280;65705;51.032;13.790;2023-06-22T01:45:53;100629.09;;;21.88;70.47
76762;BME280;65705;51.032;13.790;2023-06-22T01:48:19;100631.16;;;21.86;70.38
76762;BME280;65705;51.032;13.790;2023-06-22T01:50:45;100627.88;;;21.84;70.64
76762;BME280;65705;51.032;13.790;2023-06-22T01:53:11;100628.84;;;21.90;70.35
76762;BME280;65705;51.032;13.790;2023-06-22T01:55:37;100626.22;;;21.83;70.60
76762;BME280;65705;51.032;13.790;2023-06-22T01:58:02;100628.75;;;21.78;70.75
76762;BME280;65705;51.032;13.790;2023-06-22T02:00:31;100630.41;;;21.73;71.13
76762;BME280;65705;51.032;13.790;2023-06-22T02:03:03;100634.34;;;21.70;70.79
76762;BME280;65705;51.032;13.790;2023-06-22T02:05:37;100614.44;;;21.66;70.92
76762;BME280;65705;51.032;13.790;2023-06-22T02:10:31;100620.94;;;21.46;71.46
76762;BME280;65705;51.032;13.790;2023-06-22T02:12:58;100619.84;;;21.29;72.12
76762;BME280;65705;51.032;13.790;2023-06-22T02:15:25;100618.63;;;21.31;72.24
76762;BME280;65705;51.032;13.790;2023-06-22T02:17:54;100605.25;;;21.31;71.89
76762;BME280;65705;51.032;13.790;2023-06-22T02:20:24;100611.00;;;21.35;71.82
76762;BME280;65705;51.032;13.790;2023-06-22T02:22:50;100617.41;;;21.27;71.99
76762;BME280;65705;51.032;13.790;2023-06-22T02:25:15;100609.47;;;21.14;72.39
76762;BME280;65705;51.032;13.790;2023-06-22T02:27:41;100618.13;;;21.10;72.69
76762;BME280;65705;51.032;13.790;2023-06-22T02:30:08;100619.38;;;21.07;72.91
76762;BME280;65705;51.032;13.790;2023-06-22T02:32:38;100623.25;;;21.11;72.74
76762;BME280;65705;51.032;13.790;2023-06-22T02:35:07;100621.97;;;21.20;72.71
76762;BME280;65705;51.032;13.790;2023-06-22T02:37:35;100620.06;;;21.27;72.47
76762;BME280;65705;51.032;13.790;2023-06-22T02:40:01;100618.19;;;21.34;72.10
76762;BME280;65705;51.032;13.790;2023-06-22T02:42:28;100625.53;;;21.39;71.79
76762;BME280;65705;51.032;13.790;2023-06-22T02:44:54;100638.72;;;21.34;71.77
76762;BME280;65705;51.032;13.790;2023-06-22T02:47:20;100638.09;;;21.38;71.59
76762;BME280;65705;51.032;13.790;2023-06-22T02:49:45;100644.22;;;21.39;71.36
76762;BME280;65705;51.032;13.790;2023-06-22T02:52:12;100638.69;;;21.40;71.42
76762;BME280;65705;51.032;13.790;2023-06-22T02:54:38;100643.84;;;21.35;71.22
76762;BME280;65705;51.032;13.790;2023-06-22T02:57:04;100655.41;;;21.23;71.60
76762;BME280;65705;51.032;13.790;2023-06-22T02:59:31;100643.41;;;21.07;72.34
76762;BME280;65705;51.032;13.790;2023-06-22T03:02:02;100640.56;;;21.02;72.59
76762;BME280;65705;51.032;13.790;2023-06-22T03:04:31;100633.13;;;20.97;72.63
76762;BME280;65705;51.032;13.790;2023-06-22T03:06:57;100627.44;;;20.87;73.05
76762;BME280;65705;51.032;13.790;2023-06-22T03:09:27;100638.34;;;20.86;73.39
76762;BME280;65705;51.032;13.790;2023-06-22T03:11:54;100647.56;;;20.90;73.07
76762;BME280;65705;51.032;13.790;2023-06-22T03:14:22;100646.53;;;20.91;73.12
76762;BME280;65705;51.032;13.790;2023-06-22T03:16:47;100637.69;;;20.90;72.86
76762;BME280;65705;51.032;13.790;2023-06-22T03:19:13;100628.69;;;20.91;72.55
76762;BME280;65705;51.032;13.790;2023-06-22T03:21:40;100627.63;;;20.92;72.60
76762;BME280;65705;51.032;13.790;2023-06-22T03:24:06;100620.88;;;20.90;72.81
76762;BME280;65705;51.032;13.790;2023-06-22T03:26:32;100610.84;;;20.85;72.93
76762;BME280;65705;51.032;13.790;2023-06-22T03:28:58;100592.97;;;20.86;72.98
76762;BME280;65705;51.032;13.790;2023-06-22T03:31:24;100583.94;;;20.87;72.80
76762;BME280;65705;51.032;13.790;2023-06-22T03:33:50;100590.72;;;20.83;72.98
76762;BME280;65705;51.032;13.790;2023-06-22T03:36:17;100592.75;;;20.87;72.95
76762;BME280;65705;51.032;13.790;2023-06-22T03:38:48;100610.38;;;20.95;72.66
76762;BME280;65705;51.032;13.790;2023-06-22T03:41:15;100612.22;;;21.01;72.39
76762;BME280;65705;51.032;13.790;2023-06-22T03:43:42;100613.19;;;21.13;72.14
76762;BME280;65705;51.032;13.790;2023-06-22T03:46:08;100612.50;;;21.24;71.58
76762;BME280;65705;51.032;13.790;2023-06-22T03:48:33;100617.13;;;21.35;71.09
76762;BME280;65705;51.032;13.790;2023-06-22T03:51:01;100612.94;;;21.46;70.63
76762;BME280;65705;51.032;13.790;2023-06-22T03:53:26;100621.16;;;21.51;70.33
76762;BME280;65705;51.032;13.790;2023-06-22T03:55:53;100620.91;;;21.52;70.19
76762;BME280;65705;51.032;13.790;2023-06-22T03:58:20;100622.69;;;21.58;70.06
76762;BME280;65705;51.032;13.790;2023-06-22T04:00:50;100625.56;;;21.63;69.88
76762;BME280;65705;51.032;13.790;2023-06-22T04:03:16;100621.47;;;21.61;69.80
76762;BME280;65705;51.032;13.790;2023-06-22T04:05:44;100617.56;;;21.63;69.67
76762;BME280;65705;51.032;13.790;2023-06-22T04:08:10;100619.63;;;21.61;69.78
76762;BME280;65705;51.032;13.790;2023-06-22T04:10:36;100622.91;;;21.63;69.58
76762;BME280;65705;51.032;13.790;2023-06-22T04:13:02;100626.75;;;21.67;69.59
76762;BME280;65705;51.032;13.790;2023-06-22T04:15:27;100638.03;;;21.69;69.12
76762;BME280;65705;51.032;13.790;2023-06-22T04:17:54;100636.56;;;21.73;69.23
76762;BME280;65705;51.032;13.790;2023-06-22T04:20:21;100633.91;;;21.73;68.98
76762;BME280;65705;51.032;13.790;2023-06-22T04:22:46;100640.03;;;21.80;68.99
76762;BME280;65705;51.032;13.790;2023-06-22T04:25:12;100637.28;;;21.87;68.83
76762;BME280;65705;51.032;13.790;2023-06-22T04:27:38;100642.00;;;21.91;68.18
76762;BME280;65705;51.032;13.790;2023-06-22T04:30:07;100634.44;;;21.88;68.15
76762;BME280;65705;51.032;13.790;2023-06-22T04:32:33;100627.19;;;21.89;68.09
76762;BME280;65705;51.032;13.790;2023-06-22T04:35:04;100629.47;;;21.92;68.18
76762;BME280;65705;51.032;13.790;2023-06-22T04:37:30;100636.22;;;21.94;67.80
76762;BME280;65705;51.032;13.790;2023-06-22T04:39:56;100644.81;;;21.96;68.06
76762;BME280;65705;51.032;13.790;2023-06-22T04:42:22;100643.59;;;21.99;67.78
76762;BME280;65705;51.032;13.790;2023-06-22T04:44:48;100643.13;;;22.02;67.68
76762;BME280;65705;51.032;13.790;2023-06-22T04:47:13;100655.84;;;22.07;67.60
76762;BME280;65705;51.032;13.790;2023-06-22T04:49:39;100661.50;;;22.17;67.26
76762;BME280;65705;51.032;13.790;2023-06-22T04:52:10;100660.78;;;22.28;66.87
76762;BME280;65705;51.032;13.790;2023-06-22T04:54:38;100666.88;;;22.35;66.53
76762;BME280;65705;51.032;13.790;2023-06-22T04:57:06;100672.53;;;22.45;66.03
76762;BME280;65705;51.032;13.790;2023-06-22T04:59:36;100685.63;;;22.53;65.93
76762;BME280;65705;51.032;13.790;2023-06-22T05:02:02;100696.66;;;22.63;65.52
76762;BME280;65705;51.032;13.790;2023-06-22T05:04:29;100698.31;;;22.64;65.10
76762;BME280;65705;51.032;13.790;2023-06-22T05:06:59;100685.06;;;22.69;65.00
76762;BME280;65705;51.032;13.790;2023-06-22T05:09:26;100693.00;;;22.75;64.85
76762;BME280;65705;51.032;13.790;2023-06-22T05:11:51;100702.31;;;22.73;64.81
76762;BME280;65705;51.032;13.790;2023-06-22T05:14:17;100721.25;;;22.71;64.61
76762;BME280;65705;51.032;13.790;2023-06-22T05:16:44;100723.41;;;22.63;64.94
76762;BME280;65705;51.032;13.790;2023-06-22T05:19:10;100727.75;;;22.64;65.59
76762;BME280;65705;51.032;13.790;2023-06-22T05:21:36;100730.78;;;22.67;65.29
76762;BME280;65705;51.032;13.790;2023-06-22T05:24:02;100723.06;;;22.77;64.99
76762;BME280;65705;51.032;13.790;2023-06-22T05:26:33;100719.88;;;22.87;64.98
76762;BME280;65705;51.032;13.790;2023-06-22T05:29:00;100722.22;;;22.95;64.34
76762;BME280;65705;51.032;13.790;2023-06-22T05:31:26;100723.88;;;22.96;64.22
76762;BME280;65705;51.032;13.790;2023-06-22T05:33:54;100724.84;;;23.02;64.45
76762;BME280;65705;51.032;13.790;2023-06-22T05:36:20;100723.31;;;23.06;64.43
76762;BME280;65705;51.032;13.790;2023-06-22T05:38:47;100720.00;;;23.10;63.91
76762;BME280;65705;51.032;13.790;2023-06-22T05:41:13;100714.19;;;23.13;64.07
76762;BME280;65705;51.032;13.790;2023-06-22T05:43:39;100700.69;;;23.20;63.96
76762;BME280;65705;51.032;13.790;2023-06-22T05:46:05;100691.38;;;23.22;63.59
76762;BME280;65705;51.032;13.790;2023-06-22T05:48:31;100702.47;;;23.26;63.92
76762;BME280;65705;51.032;13.790;2023-06-22T05:50:57;100699.56;;;23.27;63.42
76762;BME280;65705;51.032;13.790;2023-06-22T05:53:23;100705.91;;;23.33;63.39
76762;BME280;65705;51.032;13.790;2023-06-22T05:55:49;100699.66;;;23.39;62.88
76762;BME280;65705;51.032;13.790;2023-06-22T05:58:15;100695.91;;;23.40;63.03
76762;BME280;65705;51.032;13.790;2023-06-22T06:00:41;100701.63;;;23.43;62.49
76762;BME280;65705;51.032;13.790;2023-06-22T06:03:08;100696.50;;;23.42;62.95
76762;BME280;65705;51.032;13.790;2023-06-22T06:05:35;100686.16;;;23.45;62.61
76762;BME280;65705;51.032;13.790;2023-06-22T06:08:02;100684.41;;;23.51;62.17
76762;BME280;65705;51.032;13.790;2023-06-22T06:10:28;100679.41;;;23.54;62.33
76762;BME280;65705;51.032;13.790;2023-06-22T06:12:57;100684.47;;;23.62;62.91
76762;BME280;65705;51.032;13.790;2023-06-22T06:15:23;100684.47;;;23.74;62.28
76762;BME280;65705;51.032;13.790;2023-06-22T06:17:50;100686.34;;;23.85;62.17
76762;BME280;65705;51.032;13.790;2023-06-22T06:20:23;100684.16;;;23.93;61.14
76762;BME280;65705;51.032;13.790;2023-06-22T06:22:49;100669.72;;;24.06;61.23
76762;BME280;65705;51.032;13.790;2023-06-22T06:25:15;100653.28;;;24.14;60.49
76762;BME280;65705;51.032;13.790;2023-06-22T06:27:43;100645.47;;;24.24;60.19
76762;BME280;65705;51.032;13.790;2023-06-22T06:30:10;100629.72;;;24.28;59.80
76762;BME280;65705;51.032;13.790;2023-06-22T06:32:36;100594.81;;;24.28;59.27
76762;BME280;65705;51.032;13.790;2023-06-22T06:35:02;100556.81;;;24.31;59.47
76762;BME280;65705;51.032;13.790;2023-06-22T06:37:28;100554.13;;;24.31;59.83
76762;BME280;65705;51.032;13.790;2023-06-22T06:39:53;100574.53;;;24.32;60.52
76762;BME280;65705;51.032;13.790;2023-06-22T06:42:19;100581.97;;;24.41;60.72
76762;BME280;65705;51.032;13.790;2023-06-22T06:44:45;100588.81;;;24.49;60.67
76762;BME280;65705;51.032;13.790;2023-06-22T06:47:11;100593.50;;;24.53;60.92
76762;BME280;65705;51.032;13.790;2023-06-22T06:49:36;100592.22;;;24.56;60.77
76762;BME280;65705;51.032;13.790;2023-06-22T06:52:02;100577.72;;;24.57;60.69
76762;BME280;65705;51.032;13.790;2023-06-22T06:54:28;100570.59;;;24.62;60.19
76762;BME280;65705;51.032;13.790;2023-06-22T06:56:54;100564.06;;;24.70;59.50
76762;BME280;65705;51.032;13.790;2023-06-22T06:59:19;100568.00;;;24.79;60.13
76762;BME280;65705;51.032;13.790;2023-06-22T07:01:45;100571.59;;;24.84;59.33
76762;BME280;65705;51.032;13.790;2023-06-22T07:04:10;100577.84;;;24.90;58.61
76762;BME280;65705;51.032;13.790;2023-06-22T07:06:36;100577.38;;;24.93;58.28
76762;BME280;65705;51.032;13.790;2023-06-22T07:09:03;100582.59;;;24.99;57.70
76762;BME280;65705;51.032;13.790;2023-06-22T07:11:29;100578.13;;;25.05;57.89
76762;BME280;65705;51.032;13.790;2023-06-22T07:13:54;100587.94;;;25.11;58.07
76762;BME280;65705;51.032;13.790;2023-06-22T07:16:20;100592.06;;;25.19;57.40
76762;BME280;65705;51.032;13.790;2023-06-22T07:18:46;100590.28;;;25.24;57.66
76762;BME280;65705;51.032;13.790;2023-06-22T07:21:12;100588.03;;;25.33;57.14
76762;BME280;65705;51.032;13.790;2023-06-22T07:23:37;100587.66;;;25.41;57.07
76762;BME280;65705;51.032;13.790;2023-06-22T07:26:03;100584.91;;;25.52;57.24
76762;BME280;65705;51.032;13.790;2023-06-22T07:28:31;100589.91;;;25.65;57.01
76762;BME280;65705;51.032;13.790;2023-06-22T07:31:02;100591.00;;;25.81;56.54
76762;BME280;65705;51.032;13.790;2023-06-22T07:33:29;100588.75;;;25.94;56.33
76762;BME280;65705;51.032;13.790;2023-06-22T07:35:55;100582.25;;;26.07;56.58
76762;BME280;65705;51.032;13.790;2023-06-22T07:38:21;100583.19;;;26.18;56.08
76762;BME280;65705;51.032;13.790;2023-06-22T07:40:47;100583.59;;;26.26;55.91
76762;BME280;65705;51.032;13.790;2023-06-22T07:43:12;100585.25;;;26.32;55.53
76762;BME280;65705;51.032;13.790;2023-06-22T07:45:38;100576.44;;;26.37;55.04
76762;BME280;65705;51.032;13.790;2023-06-22T07:48:06;100574.06;;;26.40;54.71
76762;BME280;65705;51.032;13.790;2023-06-22T07:50:32;100575.44;;;26.43;54.09
76762;BME280;65705;51.032;13.790;2023-06-22T07:52:58;100580.09;;;26.47;53.88
76762;BME280;65705;51.032;13.790;2023-06-22T07:55:23;100586.81;;;26.50;53.82
76762;BME280;65705;51.032;13.790;2023-06-22T07:57:49;100584.22;;;26.55;53.77
76762;BME280;65705;51.032;13.790;2023-06-22T08:00:17;100587.22;;;26.58;54.20
76762;BME280;65705;51.032;13.790;2023-06-22T08:02:45;100584.84;;;26.62;53.75
76762;BME280;65705;51.032;13.790;2023-06-22T08:05:11;100587.59;;;26.67;53.27
76762;BME280;65705;51.032;13.790;2023-06-22T08:07:38;100578.28;;;26.74;53.13
76762;BME280;65705;51.032;13.790;2023-06-22T08:10:05;100570.81;;;26.81;52.43
76762;BME280;65705;51.032;13.790;2023-06-22T08:12:31;100568.72;;;26.88;52.58
76762;BME280;65705;51.032;13.790;2023-06-22T08:14:57;100567.69;;;26.94;52.55
76762;BME280;65705;51.032;13.790;2023-06-22T08:17:24;100579.72;;;27.09;51.52
76762;BME280;65705;51.032;13.790;2023-06-22T08:19:50;100564.44;;;27.19;50.45
76762;BME280;65705;51.032;13.790;2023-06-22T08:22:16;100572.56;;;27.24;49.70
76762;BME280;65705;51.032;13.790;2023-06-22T08:24:42;100563.94;;;27.27;50.30
76762;BME280;65705;51.032;13.790;2023-06-22T08:27:08;100560.75;;;27.30;50.30
76762;BME280;65705;51.032;13.790;2023-06-22T08:29:42;100559.75;;;27.36;49.79
76762;BME280;65705;51.032;13.790;2023-06-22T08:32:09;100564.31;;;27.36;49.47
76762;BME280;65705;51.032;13.790;2023-06-22T08:34:34;100564.09;;;27.37;49.28
76762;BME280;65705;51.032;13.790;2023-06-22T08:37:01;100563.53;;;27.35;49.81
76762;BME280;65705;51.032;13.790;2023-06-22T08:39:32;100557.59;;;27.38;48.67
76762;BME280;65705;51.032;13.790;2023-06-22T08:41:57;100549.78;;;27.37;47.84
76762;BME280;65705;51.032;13.790;2023-06-22T08:44:23;100555.16;;;27.37;47.82
76762;BME280;65705;51.032;13.790;2023-06-22T08:46:49;100553.59;;;27.41;47.79
76762;BME280;65705;51.032;13.790;2023-06-22T08:49:14;100557.38;;;27.45;48.09
76762;BME280;65705;51.032;13.790;2023-06-22T08:51:40;100552.03;;;27.50;47.74
76762;BME280;65705;51.032;13.790;2023-06-22T08:54:06;100559.91;;;27.56;47.47
76762;BME280;65705;51.032;13.790;2023-06-22T08:56:32;100553.47;;;27.62;47.79
76762;BME280;65705;51.032;13.790;2023-06-22T08:58:57;100557.81;;;27.68;48.04
76762;BME280;65705;51.032;13.790;2023-06-22T09:01:23;100546.81;;;27.75;47.82
76762;BME280;65705;51.032;13.790;2023-06-22T09:03:49;100547.63;;;27.80;47.93
76762;BME280;65705;51.032;13.790;2023-06-22T09:06:22;100545.00;;;27.85;47.81
76762;BME280;65705;51.032;13.790;2023-06-22T09:08:48;100542.91;;;27.92;47.59
76762;BME280;65705;51.032;13.790;2023-06-22T09:11:14;100537.53;;;27.97;47.32
76762;BME280;65705;51.032;13.790;2023-06-22T09:13:40;100536.97;;;27.95;47.09
76762;BME280;65705;51.032;13.790;2023-06-22T09:16:06;100535.38;;;27.99;47.26
76762;BME280;65705;51.032;13.790;2023-06-22T09:18:33;100527.31;;;28.04;46.72
76762;BME280;65705;51.032;13.790;2023-06-22T09:20:59;100526.22;;;28.05;46.62
76762;BME280;65705;51.032;13.790;2023-06-22T09:23:25;100527.31;;;28.04;46.99
76762;BME280;65705;51.032;13.790;2023-06-22T09:25:50;100526.78;;;28.08;46.71
76762;BME280;65705;51.032;13.790;2023-06-22T09:28:16;100523.28;;;28.12;46.42
76762;BME280;65705;51.032;13.790;2023-06-22T09:30:45;100518.75;;;28.23;46.94
76762;BME280;65705;51.032;13.790;2023-06-22T09:33:11;100517.44;;;28.30;46.16
76762;BME280;65705;51.032;13.790;2023-06-22T09:35:36;100517.72;;;28.39;45.64
76762;BME280;65705;51.032;13.790;2023-06-22T09:38:02;100518.81;;;28.43;44.94
76762;BME280;65705;51.032;13.790;2023-06-22T09:40:28;100512.09;;;28.50;44.61
76762;BME280;65705;51.032;13.790;2023-06-22T09:42:54;100512.69;;;28.57;44.93
76762;BME280;65705;51.032;13.790;2023-06-22T09:45:19;100517.81;;;28.64;44.57
76762;BME280;65705;51.032;13.790;2023-06-22T09:47:45;100512.41;;;28.69;44.29
76762;BME280;65705;51.032;13.790;2023-06-22T09:50:11;100506.22;;;28.83;44.37
76762;BME280;65705;51.032;13.790;2023-06-22T09:52:37;100505.44;;;28.93;44.11
76762;BME280;65705;51.032;13.790;2023-06-22T09:55:03;100503.81;;;29.02;43.54
76762;BME280;65705;51.032;13.790;2023-06-22T09:57:29;100501.38;;;29.05;43.38
76762;BME280;65705;51.032;13.790;2023-06-22T09:59:55;100511.09;;;29.06;42.80
76762;BME280;65705;51.032;13.790;2023-06-22T10:02:21;100510.28;;;28.96;43.49
76762;BME280;65705;51.032;13.790;2023-06-22T10:04:48;100509.75;;;28.94;43.17
76762;BME280;65705;51.032;13.790;2023-06-22T10:07:14;100497.28;;;28.88;42.74
76762;BME280;65705;51.032;13.790;2023-06-22T10:09:39;100487.59;;;28.82;43.77
76762;BME280;65705;51.032;13.790;2023-06-22T10:12:05;100488.13;;;28.89;43.67
76762;BME280;65705;51.032;13.790;2023-06-22T10:14:31;100487.31;;;28.93;43.92
76762;BME280;65705;51.032;13.790;2023-06-22T10:16:57;100490.81;;;28.99;43.88
76762;BME280;65705;51.032;13.790;2023-06-22T10:19:23;100485.41;;;28.99;43.96
76762;BME280;65705;51.032;13.790;2023-06-22T10:21:48;100484.88;;;29.07;43.76
76762;BME280;65705;51.032;13.790;2023-06-22T10:24:14;100481.63;;;29.10;43.45
76762;BME280;65705;51.032;13.790;2023-06-22T10:26:40;100481.13;;;29.13;43.81
76762;BME280;65705;51.032;13.790;2023-06-22T10:29:05;100476.25;;;29.20;43.81
76762;BME280;65705;51.032;13.790;2023-06-22T10:31:31;100481.94;;;29.24;44.63
76762;BME280;65705;51.032;13.790;2023-06-22T10:33:57;100470.59;;;29.22;44.65
76762;BME280;65705;51.032;13.790;2023-06-22T10:36:23;100478.94;;;29.10;44.60
76762;BME280;65705;51.032;13.790;2023-06-22T10:38:49;100469.22;;;29.09;44.85
76762;BME280;65705;51.032;13.790;2023-06-22T10:41:15;100457.31;;;29.15;44.86
76762;BME280;65705;51.032;13.790;2023-06-22T10:43:41;100454.09;;;29.18;44.88
76762;BME280;65705;51.032;13.790;2023-06-22T10:46:07;100451.09;;;29.20;44.62
76762;BME280;65705;51.032;13.790;2023-06-22T10:48:33;100463.00;;;29.24;44.49
76762;BME280;65705;51.032;13.790;2023-06-22T10:50:59;100451.09;;;29.30;44.01
76762;BME280;65705;51.032;13.790;2023-06-22T10:53:24;100458.38;;;29.39;43.68
76762;BME280;65705;51.032;13.790;2023-06-22T10:55:50;100445.94;;;29.43;43.38
76762;BME280;65705;51.032;13.790;2023-06-22T10:58:18;100441.06;;;29.45;43.46
76762;BME280;65705;51.032;13.790;2023-06-22T11:00:44;100445.34;;;29.51;43.76
76762;BME280;65705;51.032;13.790;2023-06-22T11:03:10;100454.31;;;29.47;43.45
76762;BME280;65705;51.032;13.790;2023-06-22T11:05:36;100443.78;;;29.45;43.28
76762;BME280;65705;51.032;13.790;2023-06-22T11:08:02;100441.84;;;29.56;43.56
76762;BME280;65705;51.032;13.790;2023-06-22T11:10:27;100442.63;;;29.66;43.23
76762;BME280;65705;51.032;13.790;2023-06-22T11:12:53;100435.31;;;29.72;42.64
76762;BME280;65705;51.032;13.790;2023-06-22T11:15:20;100434.47;;;29.76;42.07
76762;BME280;65705;51.032;13.790;2023-06-22T11:17:46;100433.63;;;29.86;42.08
76762;BME280;65705;51.032;13.790;2023-06-22T11:20:12;100433.59;;;29.91;42.00
76762;BME280;65705;51.032;13.790;2023-06-22T11:22:39;100437.63;;;29.98;41.60
76762;BME280;65705;51.032;13.790;2023-06-22T11:25:05;100428.44;;;29.94;41.52
76762;BME280;65705;51.032;13.790;2023-06-22T11:27:32;100423.59;;;29.91;41.30
76762;BME280;65705;51.032;13.790;2023-06-22T11:29:57;100428.47;;;29.89;41.26
76762;BME280;65705;51.032;13.790;2023-06-22T11:32:23;100432.78;;;29.95;41.46
76762;BME280;65705;51.032;13.790;2023-06-22T11:34:49;100417.56;;;30.04;41.63
76762;BME280;65705;51.032;13.790;2023-06-22T11:37:15;100418.09;;;30.06;41.69
76762;BME280;65705;51.032;13.790;2023-06-22T11:39:41;100400.56;;;29.99;42.37
76762;BME280;65705;51.032;13.790;2023-06-22T11:42:08;100401.94;;;29.91;42.32
76762;BME280;65705;51.032;13.790;2023-06-22T11:44:34;100411.13;;;29.95;42.09
76762;BME280;65705;51.032;13.790;2023-06-22T11:47:00;100397.56;;;30.00;42.28
76762;BME280;65705;51.032;13.790;2023-06-22T11:49:29;100387.50;;;30.06;42.03
76762;BME280;65705;51.032;13.790;2023-06-22T11:51:55;100388.00;;;30.13;40.85
76762;BME280;65705;51.032;13.790;2023-06-22T11:54:21;100400.69;;;30.28;41.26
76762;BME280;65705;51.032;13.790;2023-06-22T11:56:46;100401.66;;;30.42;40.69
76762;BME280;65705;51.032;13.790;2023-06-22T11:59:12;100396.97;;;30.52;40.71
76762;BME280;65705;51.032;13.790;2023-06-22T12:01:38;100388.03;;;30.52;39.81
76762;BME280;65705;51.032;13.790;2023-06-22T12:04:04;100387.75;;;30.53;39.82
76762;BME280;65705;51.032;13.790;2023-06-22T12:06:32;100379.31;;;30.55;40.29
76762;BME280;65705;51.032;13.790;2023-06-22T12:08:58;100375.78;;;30.59;40.50
76762;BME280;65705;51.032;13.790;2023-06-22T12:11:24;100370.31;;;30.64;40.54
76762;BME280;65705;51.032;13.790;2023-06-22T12:13:50;100365.41;;;30.66;39.58
76762;BME280;65705;51.032;13.790;2023-06-22T12:16:16;100364.88;;;30.64;39.20
76762;BME280;65705;51.032;13.790;2023-06-22T12:18:41;100363.00;;;30.65;39.33
76762;BME280;65705;51.032;13.790;2023-06-22T12:21:07;100363.47;;;30.72;39.37
76762;BME280;65705;51.032;13.790;2023-06-22T12:23:33;100351.75;;;30.81;40.14
76762;BME280;65705;51.032;13.790;2023-06-22T12:25:58;100345.53;;;30.81;40.66
76762;BME280;65705;51.032;13.790;2023-06-22T12:28:25;100344.72;;;30.75;40.30
76762;BME280;65705;51.032;13.790;2023-06-22T12:30:51;100352.28;;;30.78;40.30
76762;BME280;65705;51.032;13.790;2023-06-22T12:33:16;100344.44;;;30.77;40.51
76762;BME280;65705;51.032;13.790;2023-06-22T12:35:43;100335.22;;;30.83;40.04
76762;BME280;65705;51.032;13.790;2023-06-22T12:38:10;100333.56;;;30.82;39.74
76762;BME280;65705;51.032;13.790;2023-06-22T12:40:36;100335.97;;;30.88;39.82
76762;BME280;65705;51.032;13.790;2023-06-22T12:43:02;100336.19;;;30.92;39.44
76762;BME280;65705;51.032;13.790;2023-06-22T12:45:28;100328.53;;;30.99;39.45
76762;BME280;65705;51.032;13.790;2023-06-22T12:47:57;100319.41;;;31.14;39.26